createdAt,value
2022-08-12T00:00:07.810Z,267.58
2022-08-12T00:02:54.943Z,250.70
2022-08-12T00:05:57.160Z,267.17
2022-08-12T00:08:55.222Z,278.13
2022-08-12T00:11:41.642Z,276.20
2022-08-12T00:14:27.138Z,270.13
2022-08-12T00:17:12.647Z,252.68
2022-08-12T00:19:57.998Z,256.67
2022-08-12T00:22:43.447Z,243.07
2022-08-12T00:26:01.367Z,251.48
2022-08-12T00:28:35.335Z,250.15
2022-08-12T00:31:20.720Z,250.27
2022-08-12T00:34:06.013Z,242.38
2022-08-12T00:36:51.514Z,271.30
2022-08-12T00:39:37.523Z,274.63
2022-08-12T00:42:10.833Z,253.73
2022-08-12T00:44:48.229Z,260.88
2022-08-12T00:47:25.254Z,251.00
2022-08-12T00:49:55.321Z,255.77
2022-08-12T00:52:23.409Z,262.38
2022-08-12T00:54:53.692Z,262.92
2022-08-12T00:57:22.034Z,282.95
2022-08-12T00:59:57.450Z,273.70
2022-08-12T01:02:27.685Z,267.20
2022-08-12T01:05:23.149Z,300.13
2022-08-12T01:08:11.041Z,275.92
2022-08-12T01:11:01.464Z,289.38
2022-08-12T01:13:31.083Z,275.00
2022-08-12T01:16:00.482Z,293.95
2022-08-12T01:18:29.684Z,300.80
2022-08-12T01:21:17.425Z,283.42
2022-08-12T01:23:51.407Z,273.85
2022-08-12T01:26:23.852Z,289.02
2022-08-12T01:28:55.335Z,305.40
2022-08-12T01:31:25.666Z,290.90
2022-08-12T01:34:28.614Z,291.40
2022-08-12T01:36:59.326Z,261.30
2022-08-12T01:39:35.579Z,297.95
2022-08-12T01:42:07.317Z,289.25
2022-08-12T01:44:34.762Z,301.77
2022-08-12T01:47:19.125Z,295.92
2022-08-12T01:49:54.847Z,296.25
2022-08-12T01:52:53.003Z,325.67
2022-08-12T01:55:23.497Z,294.63
2022-08-12T01:58:01.653Z,315.17
2022-08-12T02:00:55.416Z,327.98
2022-08-12T02:04:05.963Z,299.10
2022-08-12T02:07:07.136Z,319.05
2022-08-12T02:10:50.269Z,327.38
2022-08-12T02:13:10.263Z,303.47
2022-08-12T02:15:58.941Z,292.80
2022-08-12T02:18:37.939Z,299.52
2022-08-12T02:21:12.205Z,305.13
2022-08-12T02:23:40.900Z,320.00
2022-08-12T02:26:09.567Z,328.65
2022-08-12T02:28:39.867Z,310.70
2022-08-12T02:31:08.897Z,317.90
2022-08-12T02:33:37.755Z,282.00
2022-08-12T02:36:05.711Z,306.85
2022-08-12T02:38:33.086Z,332.58
2022-08-12T02:41:05.142Z,338.98
2022-08-12T02:43:45.899Z,296.98
2022-08-12T02:46:15.634Z,304.98
2022-08-12T02:49:04.591Z,314.55
2022-08-12T02:51:39.075Z,350.60
2022-08-12T02:54:07.393Z,318.10
2022-08-12T02:56:50.845Z,323.95
2022-08-12T02:59:22.484Z,360.35
2022-08-12T03:02:03.392Z,341.35
2022-08-12T03:04:43.867Z,345.23
2022-08-12T03:07:36.507Z,345.70
2022-08-12T03:10:34.730Z,330.20
2022-08-12T03:13:07.364Z,298.70
2022-08-12T03:15:35.859Z,327.38
2022-08-12T03:18:25.536Z,334.30
2022-08-12T03:20:54.590Z,325.85
2022-08-12T03:23:30.189Z,296.33
2022-08-12T03:26:01.229Z,318.70
2022-08-12T03:28:53.966Z,366.52
2022-08-12T03:31:29.765Z,331.67
2022-08-12T03:34:03.405Z,312.67
2022-08-12T03:39:22.960Z,334.48
2022-08-12T03:42:28.114Z,363.40
2022-08-12T03:45:51.699Z,356.23
2022-08-12T03:48:39.091Z,358.70
2022-08-12T03:51:24.988Z,382.73
2022-08-12T03:54:11.513Z,365.38
2022-08-12T03:56:58.260Z,334.30
2022-08-12T03:59:44.216Z,377.45
2022-08-12T04:02:15.113Z,323.98
2022-08-12T04:04:45.353Z,390.40
2022-08-12T04:07:13.622Z,357.33
2022-08-12T04:09:42.973Z,347.23
2022-08-12T04:12:32.650Z,326.80
2022-08-12T04:15:00.845Z,348.77
2022-08-12T04:17:28.245Z,337.27
2022-08-12T04:19:57.291Z,326.60
2022-08-12T04:22:30.507Z,314.08
2022-08-12T04:25:01.205Z,269.75
2022-08-12T04:27:32.114Z,290.38
2022-08-12T04:30:29.514Z,286.65
2022-08-12T04:32:50.726Z,280.02
2022-08-12T04:35:17.892Z,255.18
2022-08-12T04:37:58.677Z,250.77
2022-08-12T04:40:29.693Z,232.20
2022-08-12T04:42:57.245Z,207.38
2022-08-12T04:45:24.870Z,184.25
2022-08-12T04:47:51.989Z,169.77
2022-08-12T04:50:34.435Z,153.10
2022-08-12T04:53:02.802Z,151.90
2022-08-12T04:55:29.983Z,130.85
2022-08-12T04:57:56.783Z,121.03
2022-08-12T05:00:23.550Z,97.85
2022-08-12T05:02:50.354Z,105.95
2022-08-12T05:05:20.427Z,104.93
2022-08-12T05:07:54.569Z,92.65
2022-08-12T05:10:34.012Z,76.75
2022-08-12T05:13:11.338Z,74.63
2022-08-12T05:15:53.102Z,72.35
2022-08-12T05:18:29.223Z,69.65
2022-08-12T05:20:56.614Z,56.17
2022-08-12T05:23:23.486Z,56.92
2022-08-12T05:25:51.922Z,46.25
2022-08-12T05:28:18.848Z,53.53
2022-08-12T05:30:46.427Z,52.33
2022-08-12T05:33:15.662Z,38.05
2022-08-12T05:35:44.931Z,34.50
2022-08-12T05:38:37.530Z,41.78
2022-08-12T05:41:19.117Z,38.22
2022-08-12T05:43:53.856Z,26.67
2022-08-12T05:46:22.330Z,38.53
2022-08-12T05:48:50.128Z,30.48
2022-08-12T05:51:17.526Z,30.05
2022-08-12T05:53:44.686Z,26.85
2022-08-12T05:56:26.545Z,28.67
2022-08-12T05:58:54.525Z,26.35
2022-08-12T06:02:10.004Z,28.40
2022-08-12T06:04:09.881Z,18.95
2022-08-12T06:06:41.632Z,22.45
2022-08-12T06:09:13.243Z,22.45
2022-08-12T06:11:54.004Z,16.75
2022-08-12T06:14:37.210Z,22.07
2022-08-12T06:17:07.469Z,15.77
2022-08-12T06:20:27.353Z,18.50
2022-08-12T06:22:20.898Z,22.13
2022-08-12T06:24:49.673Z,13.95
2022-08-12T06:27:18.633Z,14.30
2022-08-12T06:30:10.221Z,12.93
2022-08-12T06:32:32.347Z,12.43
2022-08-12T06:35:25.526Z,15.10
2022-08-12T06:37:51.567Z,13.82
2022-08-12T06:40:43.637Z,15.02
2022-08-12T06:43:10.970Z,11.05
2022-08-12T06:45:46.858Z,8.25
2022-08-12T06:48:14.612Z,10.05
2022-08-12T06:50:42.455Z,7.60
2022-08-12T06:53:11.293Z,8.27
2022-08-12T06:55:39.275Z,7.50
2022-08-12T06:58:25.596Z,8.02
2022-08-12T07:00:53.334Z,11.32
2022-08-12T07:03:27.899Z,10.68
2022-08-12T07:06:00.479Z,7.13
2022-08-12T07:08:29.315Z,12.40
2022-08-12T07:10:59.162Z,10.48
2022-08-12T07:14:12.846Z,13.52
2022-08-12T07:16:26.800Z,11.27
2022-08-12T07:18:55.329Z,11.07
2022-08-12T07:21:23.308Z,11.52
2022-08-12T07:24:10.032Z,9.63
2022-08-12T07:26:40.504Z,10.27
2022-08-12T07:29:11.712Z,11.65
2022-08-12T07:31:38.792Z,9.13
2022-08-12T07:34:06.307Z,11.32
2022-08-12T07:36:33.842Z,11.93
2022-08-12T07:39:01.044Z,8.85
2022-08-12T07:41:30.468Z,9.55
2022-08-12T07:44:04.840Z,8.50
2022-08-12T07:46:38.908Z,9.70
2022-08-12T07:49:09.028Z,6.80
2022-08-12T07:51:36.241Z,6.95
2022-08-12T07:54:09.165Z,5.72
2022-08-12T07:59:08.736Z,6.05
2022-08-12T08:01:39.728Z,6.53
2022-08-12T08:04:25.826Z,9.93
2022-08-12T08:06:53.447Z,6.72
2022-08-12T08:09:22.235Z,10.77
2022-08-12T08:12:08.319Z,7.70
2022-08-12T08:14:35.231Z,10.85
2022-08-12T08:17:03.528Z,6.25
2022-08-12T08:19:33.525Z,7.93
2022-08-12T08:22:20.267Z,6.70
2022-08-12T08:25:35.915Z,9.02
2022-08-12T08:27:54.326Z,10.73
2022-08-12T08:30:21.077Z,9.43
2022-08-12T08:32:48.643Z,10.32
2022-08-12T08:35:23.135Z,9.48
2022-08-12T08:37:53.640Z,9.20
2022-08-12T08:40:39.523Z,8.23
2022-08-12T08:43:07.558Z,14.95
2022-08-12T08:45:34.689Z,14.65
2022-08-12T08:48:02.342Z,11.60
2022-08-12T08:50:29.244Z,13.70
2022-08-12T08:52:56.069Z,7.85
2022-08-12T08:55:33.420Z,8.48
2022-08-12T08:58:10.951Z,8.27
2022-08-12T09:00:39.668Z,9.90
2022-08-12T09:03:53.931Z,8.77
2022-08-12T09:06:02.866Z,8.73
2022-08-12T09:08:30.214Z,8.77
2022-08-12T09:14:12.255Z,9.13
2022-08-12T09:16:42.842Z,6.35
2022-08-12T09:19:27.454Z,10.48
2022-08-12T09:21:55.637Z,8.80
2022-08-12T09:24:22.461Z,11.13
2022-08-12T09:26:49.766Z,5.45
2022-08-12T09:30:11.418Z,5.43
2022-08-12T09:32:31.412Z,3.60
2022-08-12T09:34:56.643Z,4.95
2022-08-12T09:37:28.285Z,6.82
2022-08-12T09:41:01.709Z,6.00
2022-08-12T09:43:24.924Z,4.43
2022-08-12T09:46:19.642Z,8.85
2022-08-12T09:48:39.391Z,8.27
2022-08-12T09:51:16.919Z,5.45
2022-08-12T09:54:05.638Z,5.90
2022-08-12T09:57:01.094Z,10.18
2022-08-12T10:00:15.390Z,9.23
2022-08-12T10:02:45.018Z,8.98
2022-08-12T10:05:00.464Z,7.57
2022-08-12T10:07:40.348Z,8.55
2022-08-12T10:10:24.897Z,5.47
2022-08-12T10:13:19.436Z,4.82
2022-08-12T10:16:05.257Z,6.25
2022-08-12T10:18:35.274Z,7.28
2022-08-12T10:21:09.492Z,5.30
2022-08-12T10:23:46.047Z,8.50
2022-08-12T10:26:39.316Z,10.10
2022-08-12T10:30:37.334Z,8.30
2022-08-12T10:32:45.077Z,8.18
2022-08-12T10:35:07.392Z,6.68
2022-08-12T10:38:39.128Z,9.35
2022-08-12T10:40:28.541Z,6.65
2022-08-12T10:43:17.014Z,7.15
2022-08-12T10:45:46.132Z,6.47
2022-08-12T10:48:23.055Z,6.70
2022-08-12T10:51:00.365Z,8.90
2022-08-12T10:53:45.595Z,9.15
2022-08-12T10:56:18.015Z,6.93
2022-08-12T10:58:46.813Z,7.90
2022-08-12T11:01:50.405Z,9.20
2022-08-12T11:04:25.627Z,8.23
2022-08-12T11:07:10.202Z,4.63
2022-08-12T11:09:55.855Z,4.85
2022-08-12T11:12:56.421Z,7.90
2022-08-12T11:15:20.599Z,7.53
2022-08-12T11:17:53.286Z,6.07
2022-08-12T11:20:24.403Z,5.43
2022-08-12T11:22:59.102Z,5.28
2022-08-12T11:25:57.872Z,7.65
2022-08-12T11:28:13.997Z,5.15
2022-08-12T11:30:41.732Z,4.47
2022-08-12T11:33:12.328Z,6.55
2022-08-12T11:35:54.016Z,2.53
2022-08-12T11:38:24.640Z,3.33
2022-08-12T11:40:52.031Z,5.32
2022-08-12T11:43:20.548Z,5.45
2022-08-12T11:45:47.684Z,4.75
2022-08-12T11:48:19.857Z,6.28
2022-08-12T11:50:53.592Z,5.53
2022-08-12T11:53:58.557Z,6.15
2022-08-12T11:56:07.757Z,8.93
2022-08-12T12:01:39.045Z,7.07
2022-08-12T12:02:02.813Z,7.90
2022-08-12T12:04:12.658Z,6.80
2022-08-12T12:06:56.112Z,6.70
2022-08-12T12:09:51.884Z,6.38
2022-08-12T12:12:22.559Z,7.00
2022-08-12T12:14:54.603Z,8.07
2022-08-12T12:17:24.426Z,8.80
2022-08-12T12:19:53.161Z,9.40
2022-08-12T12:22:23.596Z,6.32
2022-08-12T12:24:54.440Z,5.10
2022-08-12T12:27:39.361Z,6.88
2022-08-12T12:30:17.615Z,6.28
2022-08-12T12:32:53.279Z,5.15
2022-08-12T12:36:06.339Z,5.45
2022-08-12T12:38:12.529Z,7.00
2022-08-12T12:40:43.640Z,4.80
2022-08-12T12:43:12.888Z,4.80
2022-08-12T12:45:44.349Z,2.80
2022-08-12T12:48:15.480Z,5.10
2022-08-12T12:50:51.413Z,4.10
2022-08-12T12:54:05.201Z,4.10
2022-08-12T12:56:15.479Z,5.15
2022-08-12T12:58:43.625Z,7.85
2022-08-12T13:01:26.792Z,6.03
2022-08-12T13:03:56.472Z,8.52
2022-08-12T13:06:30.718Z,5.90
2022-08-12T13:09:03.024Z,11.05
2022-08-12T13:11:42.112Z,9.47
2022-08-12T13:14:28.214Z,6.22
2022-08-12T13:17:01.053Z,8.75
2022-08-12T13:19:36.621Z,7.28
2022-08-12T13:22:18.459Z,6.30
2022-08-12T13:24:46.710Z,7.47
2022-08-12T13:27:20.657Z,7.10
2022-08-12T13:29:48.847Z,6.90
2022-08-12T13:32:18.998Z,4.57
2022-08-12T13:35:04.305Z,5.32
2022-08-12T13:37:54.665Z,5.20
2022-08-12T13:40:33.135Z,5.88
2022-08-12T13:43:01.971Z,9.65
2022-08-12T13:45:30.885Z,9.55
2022-08-12T13:48:03.405Z,8.68
2022-08-12T13:50:39.013Z,14.73
2022-08-12T13:53:24.304Z,14.23
2022-08-12T13:56:01.605Z,18.08
2022-08-12T13:58:30.817Z,12.63
2022-08-12T14:01:04.579Z,15.88
2022-08-12T14:03:50.444Z,17.42
2022-08-12T14:06:18.359Z,14.38
2022-08-12T14:08:45.488Z,14.50
2022-08-12T14:11:18.186Z,15.55
2022-08-12T14:14:03.630Z,14.35
2022-08-12T14:16:46.593Z,11.60
2022-08-12T14:19:22.646Z,10.35
2022-08-12T14:22:01.530Z,13.43
2022-08-12T14:24:35.375Z,11.02
2022-08-12T14:27:03.765Z,12.80
2022-08-12T14:29:55.772Z,12.27
2022-08-12T14:32:23.726Z,17.25
2022-08-12T14:34:52.766Z,15.13
2022-08-12T14:37:56.266Z,21.73
2022-08-12T14:40:11.754Z,17.13
2022-08-12T14:42:47.016Z,18.48
2022-08-12T14:45:14.322Z,21.65
2022-08-12T14:47:58.592Z,26.27
2022-08-12T14:50:42.049Z,25.17
2022-08-12T14:55:13.870Z,26.65
2022-08-12T14:59:23.330Z,22.40
2022-08-12T15:01:52.161Z,26.92
2022-08-12T15:04:24.630Z,27.55
2022-08-12T15:06:54.951Z,18.85
2022-08-12T15:09:29.220Z,30.02
2022-08-12T15:12:03.539Z,20.83
2022-08-12T15:14:35.348Z,25.77
2022-08-12T15:17:06.996Z,29.88
2022-08-12T15:20:11.517Z,25.52
2022-08-12T15:22:36.048Z,25.42
2022-08-12T15:25:07.426Z,19.42
2022-08-12T15:28:04.549Z,26.40
2022-08-12T15:30:31.272Z,24.15
2022-08-12T15:32:59.176Z,28.08
2022-08-12T15:35:31.287Z,25.77
2022-08-12T15:38:11.995Z,33.63
2022-08-12T15:40:46.869Z,29.88
2022-08-12T15:44:16.458Z,27.85
2022-08-12T15:46:04.761Z,26.33
2022-08-12T15:48:32.728Z,38.42
2022-08-12T15:51:00.623Z,34.88
2022-08-12T15:53:46.938Z,30.25
2022-08-12T15:56:29.536Z,28.42
2022-08-12T15:58:59.152Z,33.67
2022-08-12T16:01:35.661Z,30.63
2022-08-12T16:04:05.400Z,34.38
2022-08-12T16:10:05.182Z,39.60
2022-08-12T16:12:12.062Z,40.30
2022-08-12T16:14:39.745Z,33.10
2022-08-12T16:17:08.748Z,31.60
2022-08-12T16:20:05.002Z,37.42
2022-08-12T16:22:24.452Z,36.60
2022-08-12T16:24:54.087Z,24.83
2022-08-12T16:27:25.603Z,43.13
2022-08-12T16:29:57.660Z,41.40
2022-08-12T16:32:31.304Z,35.30
2022-08-12T16:35:00.784Z,27.70
2022-08-12T16:38:05.027Z,33.53
2022-08-12T16:40:18.808Z,41.50
2022-08-12T16:43:01.643Z,33.95
2022-08-12T16:48:33.656Z,38.95
2022-08-12T16:51:09.241Z,40.92
2022-08-12T16:53:44.461Z,40.35
2022-08-12T16:56:15.072Z,39.78
2022-08-12T16:58:43.506Z,37.92
2022-08-12T17:01:14.470Z,39.42
2022-08-12T17:03:48.838Z,36.35
2022-08-12T17:06:22.282Z,39.40
2022-08-12T17:09:02.656Z,39.22
2022-08-12T17:11:33.062Z,48.65
2022-08-12T17:14:01.512Z,52.85
2022-08-12T17:16:30.279Z,38.35
2022-08-12T17:19:03.319Z,35.20
2022-08-12T17:21:41.766Z,42.25
2022-08-12T17:24:21.405Z,41.95
2022-08-12T17:26:53.088Z,47.00
2022-08-12T17:29:32.386Z,36.42
2022-08-12T17:32:11.095Z,50.95
2022-08-12T17:35:10.356Z,37.90
2022-08-12T17:37:38.832Z,44.15
2022-08-12T17:40:35.284Z,46.55
2022-08-12T17:43:54.796Z,44.70
2022-08-12T17:45:56.140Z,51.80
2022-08-12T17:48:35.206Z,51.08
2022-08-12T17:51:15.081Z,55.70
2022-08-12T17:54:11.345Z,51.33
2022-08-12T17:56:37.210Z,49.85
2022-08-12T17:59:07.459Z,57.45
2022-08-12T18:01:35.830Z,57.28
2022-08-12T18:04:21.432Z,39.25
2022-08-12T18:06:50.639Z,54.75
2022-08-12T18:09:18.031Z,47.65
2022-08-12T18:12:07.739Z,53.45
2022-08-12T18:14:37.994Z,53.25
2022-08-12T18:17:09.811Z,59.37
2022-08-12T18:20:04.927Z,54.80
2022-08-12T18:22:30.706Z,72.32
2022-08-12T18:26:11.549Z,63.28
2022-08-12T18:28:15.303Z,53.78
2022-08-12T18:30:52.920Z,58.55
2022-08-12T18:33:25.126Z,62.17
2022-08-12T18:35:55.747Z,54.67
2022-08-12T18:38:25.541Z,70.18
2022-08-12T18:41:21.629Z,65.35
2022-08-12T18:44:02.615Z,63.63
2022-08-12T18:46:37.372Z,69.40
2022-08-12T18:49:18.797Z,58.05
2022-08-12T18:51:55.404Z,70.40
2022-08-12T18:54:32.386Z,67.90
2022-08-12T18:57:02.034Z,68.43
2022-08-12T19:00:00.816Z,71.43
2022-08-12T19:02:22.455Z,68.18
2022-08-12T19:04:52.978Z,82.93
2022-08-12T19:07:29.546Z,71.70
2022-08-12T19:10:13.740Z,79.20
2022-08-12T19:13:00.534Z,70.88
2022-08-12T19:15:30.126Z,86.32
2022-08-12T19:18:02.779Z,80.60
2022-08-12T19:20:31.848Z,70.40
2022-08-12T19:23:02.506Z,75.13
2022-08-12T19:26:00.079Z,75.78
2022-08-12T19:28:30.400Z,78.05
2022-08-12T19:31:55.848Z,81.13
2022-08-12T19:37:16.511Z,82.97
2022-08-12T19:40:08.830Z,89.25
2022-08-12T19:42:32.593Z,74.20
2022-08-12T19:45:05.018Z,96.88
2022-08-12T19:47:38.818Z,95.88
2022-08-12T19:50:11.105Z,80.75
2022-08-12T19:52:40.713Z,97.43
2022-08-12T19:55:11.534Z,102.63
2022-08-12T19:58:02.539Z,99.25
2022-08-12T20:00:34.817Z,102.28
2022-08-12T20:03:04.521Z,102.35
2022-08-12T20:06:05.881Z,98.57
2022-08-12T20:08:29.388Z,101.18
2022-08-12T20:12:09.895Z,107.70
2022-08-12T20:14:01.020Z,128.15
2022-08-12T20:16:52.276Z,105.40
2022-08-12T20:19:23.467Z,122.80
2022-08-12T20:21:50.882Z,137.18
2022-08-12T20:24:19.328Z,109.93
2022-08-12T20:26:46.676Z,121.43
2022-08-12T20:29:16.564Z,129.95
2022-08-12T20:31:44.173Z,123.32
2022-08-12T20:34:12.384Z,114.68
2022-08-12T20:36:44.768Z,121.18
2022-08-12T20:39:37.459Z,115.45
2022-08-12T20:42:07.036Z,132.98
2022-08-12T20:44:36.463Z,107.70
2022-08-12T20:47:18.715Z,122.82
2022-08-12T20:49:56.060Z,109.25
2022-08-12T20:52:29.797Z,125.97
2022-08-12T20:54:57.735Z,122.47
2022-08-12T20:57:37.489Z,128.40
2022-08-12T21:00:14.570Z,121.75
2022-08-12T21:02:49.760Z,137.82
2022-08-12T21:06:09.501Z,133.60
2022-08-12T21:08:26.555Z,122.93
2022-08-12T21:10:58.787Z,130.40
2022-08-12T21:13:26.999Z,147.55
2022-08-12T21:15:59.913Z,124.45
2022-08-12T21:18:29.271Z,152.05
2022-08-12T21:20:58.813Z,141.13
2022-08-12T21:23:30.616Z,146.77
2022-08-12T21:26:16.184Z,149.05
2022-08-12T21:28:56.714Z,166.73
2022-08-12T21:32:39.666Z,191.90
2022-08-12T21:34:17.994Z,162.65
2022-08-12T21:36:49.353Z,163.40
2022-08-12T21:39:21.165Z,172.32
2022-08-12T21:41:51.464Z,154.32
2022-08-12T21:45:43.608Z,136.10
2022-08-12T21:47:20.902Z,165.05
2022-08-12T21:50:03.728Z,167.48
2022-08-12T21:52:37.593Z,158.25
2022-08-12T21:55:18.810Z,158.95
2022-08-12T21:57:54.086Z,177.98
2022-08-12T22:00:34.427Z,152.45
2022-08-12T22:04:02.728Z,162.52
2022-08-12T22:06:26.233Z,172.00
2022-08-12T22:09:17.125Z,152.52
2022-08-12T22:11:56.003Z,184.65
2022-08-12T22:14:24.872Z,136.07
2022-08-12T22:16:54.684Z,173.73
2022-08-12T22:19:23.048Z,151.20
2022-08-12T22:21:53.930Z,157.55
2022-08-12T22:24:27.152Z,160.55
2022-08-12T22:27:14.355Z,180.95
2022-08-12T22:30:17.054Z,167.85
2022-08-12T22:32:51.611Z,172.45
2022-08-12T22:35:29.738Z,200.63
2022-08-12T22:38:20.615Z,198.02
2022-08-12T22:40:48.632Z,182.55
2022-08-12T22:43:34.421Z,175.75
2022-08-12T22:46:20.626Z,203.48
2022-08-12T22:48:50.680Z,213.77
2022-08-12T22:51:21.945Z,203.57
2022-08-12T22:53:53.631Z,213.15
2022-08-12T22:56:31.434Z,225.02
2022-08-12T22:59:02.870Z,228.00
2022-08-12T23:02:00.841Z,208.80
2022-08-12T23:04:27.773Z,213.10
2022-08-12T23:06:58.220Z,219.90
2022-08-12T23:09:44.823Z,238.15
2022-08-12T23:12:37.500Z,245.43
2022-08-12T23:15:13.608Z,268.02
2022-08-12T23:17:41.820Z,220.18
2022-08-12T23:20:10.970Z,240.52
2022-08-12T23:22:38.778Z,223.88
2022-08-12T23:25:20.916Z,247.65
2022-08-12T23:28:29.475Z,233.38
2022-08-12T23:30:58.731Z,226.48
2022-08-12T23:34:00.584Z,244.35
2022-08-12T23:36:39.006Z,225.43
2022-08-12T23:40:13.198Z,234.85
2022-08-12T23:42:16.654Z,266.63
2022-08-12T23:44:47.261Z,242.57
2022-08-12T23:47:16.095Z,251.52
2022-08-12T23:49:57.958Z,240.40
2022-08-12T23:52:27.596Z,249.35
2022-08-12T23:55:24.110Z,268.38
2022-08-12T23:58:17.462Z,262.75
